Time;durP1;ratioP1;P1;durP2;ratioP2;P2;SDS_P1;SDS_P2;PMS_P1;PMS_P2;Temp;Humidity;BMP_temperature;BMP_pressure;BME280_temperature;BME280_humidity;BME280_pressure;Samples;Min_cycle;Max_cycle;Signal;HPM_P1;HPM_P2
2022/02/09 00:06:19;;;;;;;;;;;;;;;20.84;41.96;102271.13;7288853;19;152561;-51
2022/02/09 00:08:46;;;;;;;;;;;;;;;20.83;42.12;102275.03;7280438;19;153429;-52
2022/02/09 00:11:19;;;;;;;;;;;;;;;20.82;41.89;102273.34;7284722;19;151912;-51
2022/02/09 01:57:12;;;;;;;;;;;;;;;20.07;44.60;102243.06;7294931;19;152180;-51
2022/02/09 01:59:40;;;;;;;;;;;;;;;20.07;44.46;102239.41;7284042;19;152042;-51
2022/02/09 02:02:07;;;;;;;;;;;;;;;20.05;44.58;102244.41;7285978;19;153376;-51
2022/02/09 02:04:34;;;;;;;;;;;;;;;20.03;44.71;102246.69;7286792;19;153685;-51
2022/02/09 02:07:07;;;;;;;;;;;;;;;20.01;44.31;102241.31;7286960;19;151525;-52
2022/02/09 02:09:36;;;;;;;;;;;;;;;19.99;44.68;102243.53;7286150;19;153364;-52
2022/02/09 02:12:12;;;;;;;;;;;;;;;19.98;44.38;102247.50;7286821;19;154742;-51
2022/02/09 02:17:16;;;;;;;;;;;;;;;19.94;44.72;102243.56;7284955;19;152576;-51
2022/02/09 02:19:49;;;;;;;;;;;;;;;19.91;44.90;102242.13;7290079;19;154135;-51
2022/02/09 03:15:10;;;;;;;;;;;;;;;19.63;45.61;102188.38;7286984;19;151891;-52
2022/02/09 03:17:40;;;;;;;;;;;;;;;19.62;45.58;102197.94;7285470;19;153606;-51
2022/02/09 03:20:22;;;;;;;;;;;;;;;19.59;45.50;102192.84;7279170;19;153471;-52
2022/02/09 03:48:09;;;;;;;;;;;;;;;19.43;46.05;102175.97;7292469;19;154138;-50
2022/02/09 03:50:48;;;;;;;;;;;;;;;19.43;46.17;102175.09;7283813;19;153773;-51
2022/02/09 03:58:15;;;;;;;;;;;;;;;19.39;45.93;102190.75;7284903;19;153468;-51
2022/02/09 04:00:45;;;;;;;;;;;;;;;19.34;46.15;102188.78;7282107;19;154190;-51
2022/02/09 04:03:17;;;;;;;;;;;;;;;19.35;46.20;102176.44;7285674;19;151945;-52
2022/02/09 04:05:46;;;;;;;;;;;;;;;19.34;45.99;102174.75;7286274;19;152769;-50
2022/02/09 04:08:16;;;;;;;;;;;;;;;19.33;46.40;102164.66;7278657;19;153730;-50
2022/02/09 04:10:50;;;;;;;;;;;;;;;19.31;46.53;102171.63;7290224;19;152296;-50
2022/02/09 04:48:37;;;;;;;;;;;;;;;19.12;46.76;102160.03;7283300;19;153461;-50
2022/02/09 04:51:18;;;;;;;;;;;;;;;19.10;46.48;102154.69;7282935;19;152285;-51
2022/02/09 05:28:59;;;;;;;;;;;;;;;19.38;47.74;102127.41;7282263;19;154203;-50
2022/02/09 05:31:26;;;;;;;;;;;;;;;19.44;48.08;102131.97;7279671;19;151715;-51
2022/02/09 05:33:53;;;;;;;;;;;;;;;19.49;47.93;102120.75;7282780;19;153628;-51
2022/02/09 05:36:20;;;;;;;;;;;;;;;19.55;48.13;102122.47;7281880;19;153587;-50
2022/02/09 05:38:47;;;;;;;;;;;;;;;19.61;48.39;102124.19;7289490;19;151636;-51
2022/02/09 05:41:14;;;;;;;;;;;;;;;19.67;48.52;102127.88;7278944;19;153408;-51
2022/02/09 05:43:41;;;;;;;;;;;;;;;19.75;49.23;102133.81;7281550;19;152529;-51
2022/02/09 05:58:48;;;;;;;;;;;;;;;20.13;47.97;102142.88;7282529;19;152020;-51
2022/02/09 06:01:15;;;;;;;;;;;;;;;20.19;47.37;102145.44;7284450;19;153820;-51
2022/02/09 06:03:42;;;;;;;;;;;;;;;20.24;47.47;102145.44;7281967;19;151600;-52
2022/02/09 06:06:09;;;;;;;;;;;;;;;20.30;47.15;102147.19;7279913;19;153238;-51
2022/02/09 06:08:38;;;;;;;;;;;;;;;20.35;47.08;102141.56;7278540;19;154255;-51
2022/02/09 06:11:13;;;;;;;;;;;;;;;20.41;47.44;102134.00;7281563;19;151513;-51
2022/02/09 06:13:45;;;;;;;;;;;;;;;20.47;47.28;102138.50;7279151;19;152276;-51
2022/02/09 06:19:40;;;;;;;;;;;;;;;20.52;46.97;102144.13;7280371;19;153991;-51
2022/02/09 06:21:29;;;;;;;;;;;;;;;20.64;46.51;102143.84;7280998;19;153572;-51
2022/02/09 06:23:56;;;;;;;;;;;;;;;20.69;46.81;102139.06;7283975;19;153596;-52
2022/02/09 06:26:23;;;;;;;;;;;;;;;20.74;46.24;102143.84;7280275;19;153548;-51
2022/02/09 06:28:52;;;;;;;;;;;;;;;20.78;46.07;102139.34;7280549;19;153050;-51
2022/02/09 06:31:19;;;;;;;;;;;;;;;20.83;46.34;102140.19;7281238;19;152399;-51
2022/02/09 06:33:47;;;;;;;;;;;;;;;20.87;46.06;102140.47;7288000;19;153133;-52
2022/02/09 06:36:15;;;;;;;;;;;;;;;20.94;46.05;102148.63;7285106;19;153246;-51
2022/02/09 06:38:42;;;;;;;;;;;;;;;20.97;46.18;102142.44;7288040;19;151941;-52
2022/02/09 06:41:09;;;;;;;;;;;;;;;21.02;45.89;102148.06;7284152;19;152834;-51
2022/02/09 06:43:37;;;;;;;;;;;;;;;21.07;45.42;102139.63;7286673;19;153758;-63
2022/02/09 06:46:05;;;;;;;;;;;;;;;21.10;45.94;102141.84;7294706;19;152420;-63
2022/02/09 06:48:33;;;;;;;;;;;;;;;21.14;45.95;102148.63;7286992;19;154540;-55
2022/02/09 06:51:08;;;;;;;;;;;;;;;21.19;45.59;102148.63;7288880;19;152736;-52
2022/02/09 06:53:44;;;;;;;;;;;;;;;21.23;45.46;102144.09;7286255;19;153615;-54
2022/02/09 06:56:22;;;;;;;;;;;;;;;21.27;45.30;102142.41;7285501;19;153288;-61
2022/02/09 07:01:20;;;;;;;;;;;;;;;21.35;45.09;102144.63;7283889;19;153746;-52
2022/02/09 07:03:47;;;;;;;;;;;;;;;21.40;45.40;102153.06;7286641;19;153516;-51
2022/02/09 07:06:14;;;;;;;;;;;;;;;21.44;45.23;102153.34;7286686;19;151794;-51
2022/02/09 07:08:41;;;;;;;;;;;;;;;21.47;44.74;102153.63;7289763;19;153870;-51
2022/02/09 07:11:09;;;;;;;;;;;;;;;21.50;44.69;102146.56;7287028;19;152196;-51
2022/02/09 07:13:37;;;;;;;;;;;;;;;21.54;45.03;102150.50;7286985;19;153358;-51
2022/02/09 07:16:05;;;;;;;;;;;;;;;21.60;44.79;102163.41;7284062;19;153552;-51
2022/02/09 07:18:33;;;;;;;;;;;;;;;21.64;45.04;102158.91;7285441;19;152205;-52
2022/02/09 07:21:05;;;;;;;;;;;;;;;21.67;45.35;102167.59;7285177;19;152741;-52
2022/02/09 07:26:09;;;;;;;;;;;;;;;21.73;44.71;102169.28;7287629;19;151987;-51
2022/02/09 07:28:36;;;;;;;;;;;;;;;21.75;44.25;102171.81;7284110;19;152268;-51
2022/02/09 07:31:06;;;;;;;;;;;;;;;21.76;44.16;102162.22;7292079;19;152448;-51
2022/02/09 07:33:37;;;;;;;;;;;;;;;21.78;43.73;102173.19;7284929;19;152814;-52
2022/02/09 07:36:05;;;;;;;;;;;;;;;21.77;43.11;102166.72;7280337;19;153554;-52
2022/02/09 07:38:32;;;;;;;;;;;;;;;21.77;43.79;102168.69;7286026;19;152038;-52
2022/02/09 07:41:00;;;;;;;;;;;;;;;21.60;41.47;102171.84;7281633;19;152223;-52
2022/02/09 07:46:18;;;;;;;;;;;;;;;21.59;41.97;102165.38;7286600;19;151737;-52
2022/02/09 07:53:57;;;;;;;;;;;;;;;21.49;41.83;102176.66;7285034;19;152616;-52
2022/02/09 07:56:26;;;;;;;;;;;;;;;21.46;41.47;102177.25;7284982;19;155881;-52
2022/02/09 07:58:53;;;;;;;;;;;;;;;21.44;41.68;102176.66;7285583;19;152134;-52
2022/02/09 08:01:22;;;;;;;;;;;;;;;21.41;41.57;102179.22;7281552;19;153493;-52
2022/02/09 08:03:50;;;;;;;;;;;;;;;21.39;41.71;102185.13;7270132;19;153934;-52
2022/02/09 08:06:23;;;;;;;;;;;;;;;21.36;41.62;102185.69;7282680;19;152153;-52
2022/02/09 08:08:52;;;;;;;;;;;;;;;21.32;41.69;102190.19;7281480;19;153008;-52
2022/02/09 08:29:02;;;;;;;;;;;;;;;21.24;42.09;102183.19;7285029;19;152864;-52
2022/02/09 08:33:59;;;;;;;;;;;;;;;21.17;42.13;102176.16;7283969;19;151724;-52
2022/02/09 08:36:26;;;;;;;;;;;;;;;21.13;42.09;102180.66;7289797;19;152874;-52
2022/02/09 08:38:53;;;;;;;;;;;;;;;21.10;42.07;102181.19;7283336;19;151926;-52
2022/02/09 08:41:21;;;;;;;;;;;;;;;21.07;41.61;102170.53;7282431;19;153758;-52
2022/02/09 08:43:48;;;;;;;;;;;;;;;21.04;41.77;102173.88;7281841;19;153769;-52
2022/02/09 08:46:16;;;;;;;;;;;;;;;21.04;41.63;102165.47;7276570;19;153802;-52
2022/02/09 08:48:43;;;;;;;;;;;;;;;21.02;41.73;102162.09;7280284;19;153432;-53
2022/02/09 08:51:10;;;;;;;;;;;;;;;21.02;41.64;102167.72;7275560;19;153605;-52
2022/02/09 08:53:37;;;;;;;;;;;;;;;20.98;41.91;102161.84;7269569;19;157119;-52
2022/02/09 08:56:07;;;;;;;;;;;;;;;20.95;41.54;102161.53;7275159;19;153791;-52
2022/02/09 08:58:34;;;;;;;;;;;;;;;20.90;41.92;102155.91;7285814;19;153448;-52
2022/02/09 09:03:41;;;;;;;;;;;;;;;20.88;41.94;102175.03;7281986;19;153974;-51
2022/02/09 09:06:12;;;;;;;;;;;;;;;20.84;42.07;102172.78;7280764;19;152684;-51
2022/02/09 09:08:57;;;;;;;;;;;;;;;20.83;41.98;102176.72;7279609;19;153568;-52
2022/02/09 10:04:20;;;;;;;;;;;;;;;20.71;43.09;102170.53;7286776;19;153811;-51
2022/02/09 10:32:28;;;;;;;;;;;;;;;21.03;42.66;102169.41;7283242;19;152953;-51
2022/02/09 10:35:06;;;;;;;;;;;;;;;21.05;42.69;102184.00;7284281;19;151830;-51
2022/02/09 10:37:33;;;;;;;;;;;;;;;21.05;42.83;102184.00;7283455;19;153565;-51
2022/02/09 10:40:08;;;;;;;;;;;;;;;21.06;42.68;102174.47;7284652;19;152491;-51
2022/02/09 10:42:42;;;;;;;;;;;;;;;21.07;42.59;102173.34;7283064;19;151873;-51
2022/02/09 10:45:29;;;;;;;;;;;;;;;21.08;42.43;102175.84;7286464;19;152674;-51
2022/02/09 10:47:56;;;;;;;;;;;;;;;21.08;42.46;102173.03;7284087;19;154066;-51
2022/02/09 10:52:57;;;;;;;;;;;;;;;21.09;42.38;102183.16;7284556;19;154772;-51
2022/02/09 10:55:25;;;;;;;;;;;;;;;21.08;42.57;102184.28;7285549;19;152225;-52
2022/02/09 10:57:57;;;;;;;;;;;;;;;21.08;42.70;102180.63;7280937;19;152674;-51
2022/02/09 11:00:25;;;;;;;;;;;;;;;21.09;42.34;102185.13;7284753;19;154139;-51
2022/02/09 11:02:52;;;;;;;;;;;;;;;21.08;42.59;102181.47;7282456;19;152007;-51
2022/02/09 11:05:20;;;;;;;;;;;;;;;21.06;42.81;102191.31;7286274;19;152312;-52
2022/02/09 11:07:47;;;;;;;;;;;;;;;20.77;40.02;102194.69;7281676;19;154121;-52
2022/02/09 11:10:15;;;;;;;;;;;;;;;20.63;39.62;102187.06;7285987;19;152363;-52
2022/02/09 11:12:43;;;;;;;;;;;;;;;20.45;39.77;102193.22;7290388;19;153502;-52
2022/02/09 11:15:17;;;;;;;;;;;;;;;20.07;40.11;102177.66;7283504;19;152521;-52
2022/02/09 11:17:47;;;;;;;;;;;;;;;20.05;40.25;102180.75;7282923;19;153244;-52
2022/02/09 11:20:20;;;;;;;;;;;;;;;19.66;40.67;102190.69;7282720;19;153588;-52
2022/02/09 11:22:47;;;;;;;;;;;;;;;19.44;41.40;102190.84;7283141;19;151942;-52
2022/02/09 11:25:20;;;;;;;;;;;;;;;19.50;41.58;102189.72;7285535;19;153630;-52
2022/02/09 11:27:53;;;;;;;;;;;;;;;19.54;41.57;102179.66;7275096;19;154631;-52
2022/02/09 11:32:54;;;;;;;;;;;;;;;19.72;41.84;102175.53;7282072;19;153605;-52
2022/02/09 11:43:05;;;;;;;;;;;;;;;19.87;42.35;102173.66;7280448;19;152027;-52
2022/02/09 12:01:10;;;;;;;;;;;;;;;20.01;42.80;102145.09;7282661;19;153940;-52
2022/02/09 12:09:14;;;;;;;;;;;;;;;20.08;44.11;102145.69;7277029;19;154030;-52
2022/02/09 12:11:51;;;;;;;;;;;;;;;20.09;43.83;102153.81;7283997;19;152107;-53
2022/02/09 12:14:23;;;;;;;;;;;;;;;20.10;43.54;102138.69;7284220;19;152962;-53
2022/02/09 12:19:32;;;;;;;;;;;;;;;20.16;43.39;102133.94;7291667;19;151593;-52
2022/02/09 12:24:29;;;;;;;;;;;;;;;20.24;43.27;102133.38;7280615;19;151962;-53
2022/02/09 12:26:56;;;;;;;;;;;;;;;20.29;42.89;102128.63;7280599;19;152224;-52
2022/02/09 12:29:27;;;;;;;;;;;;;;;20.33;42.94;102132.59;7280331;19;154553;-53
2022/02/09 12:31:54;;;;;;;;;;;;;;;20.38;42.71;102120.53;7280390;19;152146;-52
2022/02/09 12:34:23;;;;;;;;;;;;;;;20.42;42.79;102118.84;7282989;19;152063;-52
2022/02/09 12:36:52;;;;;;;;;;;;;;;20.48;42.41;102114.94;7280923;19;153718;-52
2022/02/09 12:39:20;;;;;;;;;;;;;;;20.52;42.32;102113.25;7278692;19;153947;-53
2022/02/09 12:41:49;;;;;;;;;;;;;;;20.57;42.62;102103.97;7283556;19;152776;-53
2022/02/09 12:44:19;;;;;;;;;;;;;;;20.60;42.10;102101.44;7283588;19;152254;-53
2022/02/09 12:46:46;;;;;;;;;;;;;;;20.64;42.23;102096.94;7282952;19;153241;-53
2022/02/09 12:49:15;;;;;;;;;;;;;;;20.67;41.99;102087.13;7279528;19;153284;-52
2022/02/09 12:51:43;;;;;;;;;;;;;;;20.68;41.90;102084.03;7282798;19;151934;-52
2022/02/09 12:54:11;;;;;;;;;;;;;;;20.71;41.86;102089.09;7282769;19;152830;-53
2022/02/09 12:56:40;;;;;;;;;;;;;;;20.74;42.09;102094.13;7277921;19;154613;-53
2022/02/09 12:59:09;;;;;;;;;;;;;;;20.74;41.81;102087.69;7280931;19;151966;-53
2022/02/09 13:01:39;;;;;;;;;;;;;;;20.73;42.10;102086.84;7275495;19;152818;-53
2022/02/09 13:04:07;;;;;;;;;;;;;;;20.75;41.55;102089.38;7287700;19;152866;-53
2022/02/09 13:06:35;;;;;;;;;;;;;;;20.75;41.51;102097.78;7278789;19;153903;-53
2022/02/09 13:09:02;;;;;;;;;;;;;;;20.76;41.82;102091.03;7276840;19;153048;-53
2022/02/09 13:11:32;;;;;;;;;;;;;;;20.76;41.83;102088.22;7278495;19;151977;-53
2022/02/09 13:19:21;;;;;;;;;;;;;;;20.77;41.43;102085.13;7281858;19;151933;-52
2022/02/09 14:17:51;;;;;;;;;;;;;;;20.55;41.61;102045.28;7284437;19;153672;-53
2022/02/09 14:55:32;;;;;;;;;;;;;;;20.26;42.06;102042.16;7292938;19;152146;-52
2022/02/09 14:58:03;;;;;;;;;;;;;;;20.24;41.96;102047.22;7283933;19;154032;-52
2022/02/09 15:00:33;;;;;;;;;;;;;;;20.21;42.09;102047.78;7286267;19;151989;-52
2022/02/09 15:10:38;;;;;;;;;;;;;;;20.24;42.37;102046.38;7286024;19;152856;-52
2022/02/09 15:23:11;;;;;;;;;;;;;;;20.34;42.44;102046.41;7264205;19;153081;-52
2022/02/09 15:25:38;;;;;;;;;;;;;;;20.34;42.41;102041.66;7284481;19;153556;-51
2022/02/09 15:28:06;;;;;;;;;;;;;;;20.35;42.46;102043.31;7283737;19;151868;-51
2022/02/09 15:30:44;;;;;;;;;;;;;;;20.35;42.37;102045.31;7283852;19;152809;-51
2022/02/09 15:33:12;;;;;;;;;;;;;;;20.36;42.65;102042.19;7283445;19;153024;-51
2022/02/09 15:35:42;;;;;;;;;;;;;;;20.37;42.21;102035.47;7285531;19;152206;-50
2022/02/09 16:06:33;;;;;;;;;;;;;;;20.42;42.44;102017.78;7282701;19;152318;-51
2022/02/09 16:24:06;;;;;;;;;;;;;;;20.39;42.21;102007.13;7288077;19;151884;-51
2022/02/09 16:46:37;;;;;;;;;;;;;;;20.30;42.49;101998.44;7287784;19;153194;-50
2022/02/09 16:49:09;;;;;;;;;;;;;;;20.29;42.11;101993.06;7282980;19;153056;-51
2022/02/09 16:54:26;;;;;;;;;;;;;;;20.26;42.34;101988.84;7281626;19;154019;-50
2022/02/09 17:19:44;;;;;;;;;;;;;;;20.38;42.44;101977.38;7282081;19;152856;-51
2022/02/09 17:22:12;;;;;;;;;;;;;;;20.42;42.44;101978.47;7279244;19;154112;-50
2022/02/09 17:24:39;;;;;;;;;;;;;;;20.44;42.60;101976.25;7271501;19;152094;-51
2022/02/09 17:27:18;;;;;;;;;;;;;;;20.48;42.63;101980.16;7283085;19;153347;-51
2022/02/09 17:36:26;;;;;;;;;;;;;;;20.57;42.55;101983.25;7281454;19;152576;-51
2022/02/09 17:53:55;;;;;;;;;;;;;;;20.69;41.90;101993.03;7282563;19;151726;-50
2022/02/09 17:56:25;;;;;;;;;;;;;;;20.68;42.29;101982.91;7286606;19;153595;-50
2022/02/09 17:58:53;;;;;;;;;;;;;;;20.70;41.95;101985.47;7280014;19;153989;-50
2022/02/09 18:01:21;;;;;;;;;;;;;;;20.70;42.29;101991.91;7278111;19;153572;-50
2022/02/09 18:03:52;;;;;;;;;;;;;;;20.70;42.22;101985.47;7279295;19;152363;-50
2022/02/09 18:06:24;;;;;;;;;;;;;;;20.71;41.96;101995.56;7282076;19;151840;-50
2022/02/09 18:09:03;;;;;;;;;;;;;;;20.70;42.27;101986.31;7278553;19;153190;-50
2022/02/09 18:43:38;;;;;;;;;;;;;;;20.78;42.12;101968.00;7286028;19;153505;-51
2022/02/09 18:46:18;;;;;;;;;;;;;;;20.76;42.35;101968.28;7287646;19;154442;-51
2022/02/09 19:04:12;;;;;;;;;;;;;;;20.81;42.84;101971.09;7291202;19;152053;-52
2022/02/09 19:31:48;;;;;;;;;;;;;;;21.03;42.63;101948.25;7282448;19;154046;-52
2022/02/09 19:47:29;;;;;;;;;;;;;;;21.05;42.81;101947.97;7282920;19;151742;-52
2022/02/09 19:57:28;;;;;;;;;;;;;;;21.05;42.91;101946.00;7285609;19;151898;-52
2022/02/09 19:59:57;;;;;;;;;;;;;;;21.07;42.74;101951.34;7283540;19;153354;-52
2022/02/09 20:02:25;;;;;;;;;;;;;;;21.08;42.81;101941.75;7278590;19;152974;-52
2022/02/09 20:04:55;;;;;;;;;;;;;;;21.08;42.60;101947.38;7271808;19;153012;-52
2022/02/09 20:07:24;;;;;;;;;;;;;;;21.07;43.05;101951.34;7272458;19;152165;-52
2022/02/09 20:09:59;;;;;;;;;;;;;;;21.08;42.85;101951.03;7271357;19;153239;-52
2022/02/09 20:12:28;;;;;;;;;;;;;;;21.06;42.82;101947.69;7276429;19;152867;-56
2022/02/09 20:15:02;;;;;;;;;;;;;;;21.05;43.26;101947.97;7270262;19;153411;-52
2022/02/09 20:17:32;;;;;;;;;;;;;;;21.04;43.00;101952.75;7271640;19;154002;-52
2022/02/09 20:20:02;;;;;;;;;;;;;;;21.04;42.90;101944.31;7273400;19;153610;-52
2022/02/09 20:22:29;;;;;;;;;;;;;;;21.03;42.96;101944.63;7275665;19;154478;-52
2022/02/09 20:24:56;;;;;;;;;;;;;;;21.01;42.91;101944.91;7282389;19;152338;-52
2022/02/09 20:27:25;;;;;;;;;;;;;;;21.00;43.30;101946.03;7280098;19;152897;-52
2022/02/09 20:29:53;;;;;;;;;;;;;;;20.98;43.64;101944.63;7273059;19;153256;-52
2022/02/09 20:32:28;;;;;;;;;;;;;;;20.98;43.63;101948.28;7284157;19;152517;-52
2022/02/09 20:34:58;;;;;;;;;;;;;;;20.97;43.50;101945.75;7262927;19;153152;-52
2022/02/09 20:37:40;;;;;;;;;;;;;;;20.93;43.29;101951.13;7264661;19;152342;-52
2022/02/09 20:42:53;;;;;;;;;;;;;;;20.86;43.62;101942.97;7266354;19;154358;-52
2022/02/09 20:50:24;;;;;;;;;;;;;;;20.89;43.60;101941.59;7276421;19;153298;-51
2022/02/09 20:52:51;;;;;;;;;;;;;;;20.89;43.51;101938.78;7279560;19;152402;-52
2022/02/09 20:55:17;;;;;;;;;;;;;;;20.89;43.92;101949.16;7287965;19;153224;-51
2022/02/09 20:57:45;;;;;;;;;;;;;;;20.88;43.57;101948.31;7280445;19;151921;-52
2022/02/09 21:00:19;;;;;;;;;;;;;;;20.86;43.62;101947.75;7280296;19;152801;-52
2022/02/09 21:02:55;;;;;;;;;;;;;;;20.85;44.02;101954.50;7278423;19;152400;-52
2022/02/09 21:05:27;;;;;;;;;;;;;;;20.82;43.75;101950.31;7277758;19;156652;-52
2022/02/09 21:08:11;;;;;;;;;;;;;;;20.81;44.20;101947.78;7279837;19;154653;-52
2022/02/09 21:26:21;;;;;;;;;;;;;;;20.67;44.25;101941.09;7280664;19;152173;-52
2022/02/09 21:42:03;;;;;;;;;;;;;;;20.55;44.04;101946.16;7287820;19;151982;-51
2022/02/09 21:54:44;;;;;;;;;;;;;;;20.46;44.34;101945.06;7282986;19;152164;-50
2022/02/09 22:20:25;;;;;;;;;;;;;;;20.29;44.56;101932.16;7287415;19;153516;-51
2022/02/09 22:23:06;;;;;;;;;;;;;;;20.31;44.78;101923.47;7286698;19;151993;-51
2022/02/09 22:28:18;;;;;;;;;;;;;;;20.34;44.93;101920.13;7291872;19;155262;-51
2022/02/09 22:34:17;;;;;;;;;;;;;;;20.41;45.49;101926.25;7285347;19;153721;-51
2022/02/09 22:56:43;;;;;;;;;;;;;;;20.64;45.45;101891.94;7287695;19;152039;-51
2022/02/09 22:59:18;;;;;;;;;;;;;;;20.66;45.43;101883.25;7284990;19;153480;-51
2022/02/09 23:14:44;;;;;;;;;;;;;;;20.73;45.15;101880.97;7281758;19;154908;-51
2022/02/09 23:53:06;;;;;;;;;;;;;;;20.73;45.17;101873.38;7284747;19;151997;-51
2022/02/09 23:54:10;;;;;;;;;;;;;;;20.74;45.84;101871.41;7284510;19;152186;-51
